Time;durP1;ratioP1;P1;durP2;ratioP2;P2;SDS_P1;SDS_P2;PMS_P1;PMS_P2;Temp;Humidity;BMP_temperature;BMP_pressure;BME280_temperature;BME280_humidity;BME280_pressure;Samples;Min_cycle;Max_cycle;Signal;HPM_P1;HPM_P2
2022/08/23 00:00:26;;;;;;;;;;;;;;;;;;4997907;28;19910;-85
2022/08/23 00:02:52;;;;;;;;;;;;;;;;;;4993458;28;19921;-86
2022/08/23 00:05:17;;;;;;;;;;;;;;;;;;4996416;28;19967;-86
2022/08/23 00:07:42;;;;;;;;;;;;;;;;;;4995739;28;19966;-86
2022/08/23 00:10:07;;;;;;;;;;;;;;;;;;4997839;28;20003;-85
2022/08/23 00:12:33;;;;;;;;;;;;;;;;;;4997142;28;19984;-85
2022/08/23 00:14:58;;;;;;;;;;;;;;;;;;4991086;28;19918;-87
2022/08/23 00:17:23;;;;;;;;;;;;;;;;;;4996862;28;19918;-86
2022/08/23 00:19:48;;;;;;;;;;;;;;;;;;4998221;28;19921;-85
2022/08/23 00:22:14;;;;;;;;;;;;;;;;;;4996484;28;19913;-86
2022/08/23 00:24:39;;;;;;;;;;;;;;;;;;4993403;28;19918;-87
2022/08/23 00:27:05;;;;;;;;;;;;;;;;;;4992086;28;20170;-86
2022/08/23 00:29:30;;;;;;;;;;;;;;;;;;4996123;28;20448;-84
2022/08/23 00:31:55;;;;;;;;;;;;;;;;;;4995875;28;20011;-87
2022/08/23 00:34:20;;;;;;;;;;;;;;;;;;4997670;28;19918;-85
2022/08/23 00:36:46;;;;;;;;;;;;;;;;;;4994874;28;19922;-86
2022/08/23 00:39:11;;;;;;;;;;;;;;;;;;4996347;28;19914;-86
2022/08/23 00:41:37;;;;;;;;;;;;;;;;;;4996430;28;20018;-87
2022/08/23 00:49:43;;;;;;;;;;;;;;;;;;4977228;28;19972;-85
2022/08/23 00:52:08;;;;;;;;;;;;;;;;;;4959388;28;19957;-87
2022/08/23 00:54:33;;;;;;;;;;;;;;;;;;4961078;28;19910;-87
2022/08/23 00:56:58;;;;;;;;;;;;;;;;;;4958700;28;19918;-86
2022/08/23 00:59:23;;;;;;;;;;;;;;;;;;4955856;28;19922;-85
2022/08/23 01:01:49;;;;;;;;;;;;;;;;;;4957366;28;19918;-86
2022/08/23 01:04:16;;;;;;;;;;;;;;;;;;4960078;28;19914;-87
2022/08/23 01:06:42;;;;;;;;;;;;;;;;;;4959354;28;19960;-86
2022/08/23 01:09:08;;;;;;;;;;;;;;;;;;4959878;28;19918;-86
2022/08/23 01:11:33;;;;;;;;;;;;;;;;;;4975958;28;19914;-86
2022/08/23 01:13:58;;;;;;;;;;;;;;;;;;4958267;28;19949;-86
2022/08/23 01:16:23;;;;;;;;;;;;;;;;;;4966691;28;19924;-86
2022/08/23 01:18:48;;;;;;;;;;;;;;;;;;4958446;28;19914;-87
2022/08/23 01:21:13;;;;;;;;;;;;;;;;;;4958571;28;19960;-87
2022/08/23 01:23:38;;;;;;;;;;;;;;;;;;4993054;28;19925;-86
2022/08/23 01:26:04;;;;;;;;;;;;;;;;;;4994306;28;19914;-86
2022/08/23 01:28:29;;;;;;;;;;;;;;;;;;4996738;28;20323;-87
2022/08/23 01:30:54;;;;;;;;;;;;;;;;;;4996999;28;19929;-86
2022/08/23 01:33:20;;;;;;;;;;;;;;;;;;4995608;28;19921;-87
2022/08/23 01:35:45;;;;;;;;;;;;;;;;;;4989368;28;20013;-86
2022/08/23 01:38:10;;;;;;;;;;;;;;;;;;5006678;28;19920;-84
2022/08/23 01:40:35;;;;;;;;;;;;;;;;;;4993516;28;19910;-85
2022/08/23 01:43:02;;;;;;;;;;;;;;;;;;4993850;28;19917;-85
2022/08/23 01:45:27;;;;;;;;;;;;;;;;;;5008780;28;19910;-84
2022/08/23 01:47:52;;;;;;;;;;;;;;;;;;5012028;28;19914;-86
2022/08/23 01:50:17;;;;;;;;;;;;;;;;;;5007577;28;19918;-85
2022/08/23 01:52:43;;;;;;;;;;;;;;;;;;5010101;28;19925;-84
2022/08/23 01:55:08;;;;;;;;;;;;;;;;;;4998984;28;19925;-85
2022/08/23 01:57:33;;;;;;;;;;;;;;;;;;5009206;28;19914;-85
2022/08/23 01:59:58;;;;;;;;;;;;;;;;;;5001240;28;19914;-85
2022/08/23 02:02:24;;;;;;;;;;;;;;;;;;4989347;28;19910;-85
2022/08/23 02:04:49;;;;;;;;;;;;;;;;;;4998151;28;19914;-86
2022/08/23 02:07:14;;;;;;;;;;;;;;;;;;5006988;28;19937;-86
2022/08/23 02:09:39;;;;;;;;;;;;;;;;;;5008841;28;19918;-86
2022/08/23 02:12:04;;;;;;;;;;;;;;;;;;5011552;28;19911;-86
2022/08/23 02:14:30;;;;;;;;;;;;;;;;;;4993855;28;20004;-85
2022/08/23 02:16:55;;;;;;;;;;;;;;;;;;4993104;28;20414;-85
2022/08/23 02:19:20;;;;;;;;;;;;;;;;;;4996057;28;19945;-86
2022/08/23 02:21:45;;;;;;;;;;;;;;;;;;4981692;28;19921;-86
2022/08/23 02:24:11;;;;;;;;;;;;;;;;;;4995017;28;19937;-86
2022/08/23 02:26:36;;;;;;;;;;;;;;;;;;4995751;28;20360;-85
2022/08/23 02:29:01;;;;;;;;;;;;;;;;;;4990496;28;19922;-85
2022/08/23 02:31:26;;;;;;;;;;;;;;;;;;4994755;28;20001;-86
2022/08/23 02:33:51;;;;;;;;;;;;;;;;;;4993930;28;19965;-86
2022/08/23 02:36:16;;;;;;;;;;;;;;;;;;4995302;28;19916;-86
2022/08/23 02:38:42;;;;;;;;;;;;;;;;;;4988955;28;20391;-86
2022/08/23 02:41:07;;;;;;;;;;;;;;;;;;4994416;28;19952;-85
2022/08/23 02:43:32;;;;;;;;;;;;;;;;;;4991784;28;19914;-85
2022/08/23 02:45:58;;;;;;;;;;;;;;;;;;4994768;28;20299;-85
2022/08/23 02:48:23;;;;;;;;;;;;;;;;;;4988222;28;19910;-85
2022/08/23 02:50:48;;;;;;;;;;;;;;;;;;4994865;28;20356;-87
2022/08/23 02:53:14;;;;;;;;;;;;;;;;;;4993963;28;19917;-86
2022/08/23 02:55:39;;;;;;;;;;;;;;;;;;4995755;28;19917;-87
2022/08/23 02:58:04;;;;;;;;;;;;;;;;;;4993946;28;19910;-86
2022/08/23 03:00:29;;;;;;;;;;;;;;;;;;4990422;28;19925;-86
2022/08/23 03:02:54;;;;;;;;;;;;;;;;;;4994337;28;20008;-87
2022/08/23 03:05:20;;;;;;;;;;;;;;;;;;4991330;28;20415;-86
2022/08/23 03:07:45;;;;;;;;;;;;;;;;;;4995649;28;19913;-87
2022/08/23 03:10:10;;;;;;;;;;;;;;;;;;4994772;28;20472;-86
2022/08/23 03:12:36;;;;;;;;;;;;;;;;;;4978894;28;19922;-86
2022/08/23 03:15:01;;;;;;;;;;;;;;;;;;4990239;28;19917;-86
2022/08/23 03:17:26;;;;;;;;;;;;;;;;;;4995532;28;19964;-86
2022/08/23 03:19:51;;;;;;;;;;;;;;;;;;4999277;28;19914;-85
2022/08/23 03:22:17;;;;;;;;;;;;;;;;;;4996779;28;19947;-86
2022/08/23 03:24:42;;;;;;;;;;;;;;;;;;4998615;28;20016;-87
2022/08/23 03:27:07;;;;;;;;;;;;;;;;;;5000325;28;19910;-86
2022/08/23 03:29:32;;;;;;;;;;;;;;;;;;4995388;28;19957;-86
2022/08/23 03:31:57;;;;;;;;;;;;;;;;;;4994400;28;19921;-86
2022/08/23 03:34:22;;;;;;;;;;;;;;;;;;4997055;28;19960;-85
2022/08/23 03:36:48;;;;;;;;;;;;;;;;;;4993627;28;19921;-86
2022/08/23 03:39:13;;;;;;;;;;;;;;;;;;4978864;28;19945;-86
2022/08/23 03:41:38;;;;;;;;;;;;;;;;;;4987122;28;20162;-86
2022/08/23 03:44:03;;;;;;;;;;;;;;;;;;4995407;28;19914;-86
2022/08/23 03:46:29;;;;;;;;;;;;;;;;;;4997478;28;19917;-86
2022/08/23 03:48:54;;;;;;;;;;;;;;;;;;4997771;28;20276;-86
2022/08/23 03:51:19;;;;;;;;;;;;;;;;;;4998369;28;19914;-87
2022/08/23 03:53:45;;;;;;;;;;;;;;;;;;4995769;28;19913;-86
2022/08/23 03:56:10;;;;;;;;;;;;;;;;;;4996169;28;19930;-87
2022/08/23 03:58:35;;;;;;;;;;;;;;;;;;5000166;28;19950;-86
2022/08/23 04:01:00;;;;;;;;;;;;;;;;;;4997924;28;19913;-87
2022/08/23 04:03:26;;;;;;;;;;;;;;;;;;4995460;28;19918;-87
2022/08/23 04:05:51;;;;;;;;;;;;;;;;;;4997434;28;20005;-87
2022/08/23 04:08:16;;;;;;;;;;;;;;;;;;4998078;28;20356;-86
2022/08/23 04:10:41;;;;;;;;;;;;;;;;;;4996065;28;19976;-86
2022/08/23 04:13:07;;;;;;;;;;;;;;;;;;4992565;28;19914;-86
2022/08/23 04:15:33;;;;;;;;;;;;;;;;;;4997505;28;19981;-87
2022/08/23 04:17:58;;;;;;;;;;;;;;;;;;4996208;28;19960;-86
2022/08/23 04:20:24;;;;;;;;;;;;;;;;;;4999129;28;20276;-87
2022/08/23 04:22:49;;;;;;;;;;;;;;;;;;4997789;28;20008;-86
2022/08/23 04:25:14;;;;;;;;;;;;;;;;;;4997115;28;20372;-87
2022/08/23 04:27:40;;;;;;;;;;;;;;;;;;4996419;28;19917;-86
2022/08/23 04:30:05;;;;;;;;;;;;;;;;;;4997758;28;20387;-87
2022/08/23 04:32:30;;;;;;;;;;;;;;;;;;4995420;28;20370;-87
2022/08/23 04:34:56;;;;;;;;;;;;;;;;;;4993900;28;19914;-87
2022/08/23 04:37:22;;;;;;;;;;;;;;;;;;4996595;28;20013;-86
2022/08/23 04:42:31;;;;;;;;;;;;;;;;;;4997706;28;20048;-86
2022/08/23 04:44:56;;;;;;;;;;;;;;;;;;4989378;28;20562;-86
2022/08/23 04:47:22;;;;;;;;;;;;;;;;;;4993332;28;20280;-86
2022/08/23 04:49:48;;;;;;;;;;;;;;;;;;4996722;28;19989;-85
2022/08/23 04:52:13;;;;;;;;;;;;;;;;;;4994615;28;19990;-86
2022/08/23 04:54:38;;;;;;;;;;;;;;;;;;4995854;28;19980;-86
2022/08/23 04:57:04;;;;;;;;;;;;;;;;;;4994267;28;20297;-86
2022/08/23 04:59:29;;;;;;;;;;;;;;;;;;4998849;28;19921;-87
2022/08/23 05:01:54;;;;;;;;;;;;;;;;;;4992833;28;20257;-86
2022/08/23 05:04:19;;;;;;;;;;;;;;;;;;4980065;28;19914;-86
2022/08/23 05:06:44;;;;;;;;;;;;;;;;;;4991412;28;19914;-86
2022/08/23 05:09:09;;;;;;;;;;;;;;;;;;4994409;28;19922;-86
2022/08/23 05:11:34;;;;;;;;;;;;;;;;;;4997539;28;19937;-85
2022/08/23 05:14:00;;;;;;;;;;;;;;;;;;4991919;28;19914;-88
2022/08/23 05:16:25;;;;;;;;;;;;;;;;;;4991735;28;19925;-87
2022/08/23 05:18:50;;;;;;;;;;;;;;;;;;4994434;28;20024;-87
2022/08/23 05:21:16;;;;;;;;;;;;;;;;;;4996464;28;20257;-87
2022/08/23 05:23:41;;;;;;;;;;;;;;;;;;4991836;28;19910;-88
2022/08/23 05:26:06;;;;;;;;;;;;;;;;;;4989337;28;19973;-87
2022/08/23 05:28:32;;;;;;;;;;;;;;;;;;4991594;28;19913;-87
2022/08/23 05:30:57;;;;;;;;;;;;;;;;;;4994714;28;19913;-86
2022/08/23 05:33:22;;;;;;;;;;;;;;;;;;4993039;28;19922;-87
2022/08/23 05:35:47;;;;;;;;;;;;;;;;;;4996234;28;19926;-86
2022/08/23 05:38:13;;;;;;;;;;;;;;;;;;4993649;28;19936;-84
2022/08/23 05:40:38;;;;;;;;;;;;;;;;;;4993099;28;19957;-85
2022/08/23 05:43:03;;;;;;;;;;;;;;;;;;4991357;28;20300;-85
2022/08/23 05:45:28;;;;;;;;;;;;;;;;;;4981228;28;20189;-87
2022/08/23 05:47:53;;;;;;;;;;;;;;;;;;4992414;28;19921;-85
2022/08/23 05:50:18;;;;;;;;;;;;;;;;;;4989533;28;19922;-88
2022/08/23 05:52:44;;;;;;;;;;;;;;;;;;4993420;28;19920;-86
2022/08/23 05:55:09;;;;;;;;;;;;;;;;;;4996618;28;19918;-87
2022/08/23 05:57:34;;;;;;;;;;;;;;;;;;4994997;28;20370;-87
2022/08/23 05:59:59;;;;;;;;;;;;;;;;;;4991106;28;20287;-86
2022/08/23 06:02:24;;;;;;;;;;;;;;;;;;4993523;28;19914;-89
2022/08/23 06:04:51;;;;;;;;;;;;;;;;;;4996171;28;19917;-86
2022/08/23 06:07:16;;;;;;;;;;;;;;;;;;4996681;28;19913;-89
2022/08/23 06:09:41;;;;;;;;;;;;;;;;;;4994741;28;19922;-91
2022/08/23 06:12:06;;;;;;;;;;;;;;;;;;4995571;28;19921;-89
2022/08/23 06:14:31;;;;;;;;;;;;;;;;;;4996005;28;20004;-88
2022/08/23 06:16:57;;;;;;;;;;;;;;;;;;4994646;28;19918;-88
2022/08/23 06:19:22;;;;;;;;;;;;;;;;;;4996809;28;19937;-89
2022/08/23 06:21:47;;;;;;;;;;;;;;;;;;4988400;28;20033;-88
2022/08/23 06:24:13;;;;;;;;;;;;;;;;;;4996493;28;19914;-89
2022/08/23 06:26:38;;;;;;;;;;;;;;;;;;4997213;28;19913;-87
2022/08/23 06:29:03;;;;;;;;;;;;;;;;;;4993957;28;19929;-89
2022/08/23 06:31:44;;;;;;;;;;;;;;;;;;4990889;28;20452;-87
2022/08/23 06:34:09;;;;;;;;;;;;;;;;;;4993442;28;19914;-86
2022/08/23 06:36:35;;;;;;;;;;;;;;;;;;4994072;28;20372;-86
2022/08/23 06:39:00;;;;;;;;;;;;;;;;;;4992212;28;19917;-86
2022/08/23 06:41:26;;;;;;;;;;;;;;;;;;4989818;28;20378;-89
2022/08/23 06:43:51;;;;;;;;;;;;;;;;;;4993273;28;19910;-90
2022/08/23 06:46:16;;;;;;;;;;;;;;;;;;4993126;28;19925;-91
2022/08/23 06:48:41;;;;;;;;;;;;;;;;;;4994123;28;19941;-90
2022/08/23 06:51:07;;;;;;;;;;;;;;;;;;4986193;28;19961;-88
2022/08/23 06:53:32;;;;;;;;;;;;;;;;;;4995082;28;19910;-90
2022/08/23 06:55:58;;;;;;;;;;;;;;;;;;4997577;28;19921;-89
2022/08/23 06:58:23;;;;;;;;;;;;;;;;;;4994790;28;20412;-89
2022/08/23 07:00:48;;;;;;;;;;;;;;;;;;4997249;28;20220;-90
2022/08/23 07:03:13;;;;;;;;;;;;;;;;;;4996160;28;19910;-88
2022/08/23 07:05:38;;;;;;;;;;;;;;;;;;4996386;28;20207;-88
2022/08/23 07:08:03;;;;;;;;;;;;;;;;;;4997134;28;19925;-89
2022/08/23 07:10:29;;;;;;;;;;;;;;;;;;4991258;28;20062;-87
2022/08/23 07:12:54;;;;;;;;;;;;;;;;;;4995759;28;19914;-88
2022/08/23 07:15:19;;;;;;;;;;;;;;;;;;4980625;28;20341;-88
2022/08/23 07:17:44;;;;;;;;;;;;;;;;;;4976642;28;19910;-89
2022/08/23 07:20:09;;;;;;;;;;;;;;;;;;4989908;28;19918;-84
2022/08/23 07:22:35;;;;;;;;;;;;;;;;;;4992130;28;19937;-83
2022/08/23 07:25:00;;;;;;;;;;;;;;;;;;4990549;28;19914;-82
2022/08/23 07:27:26;;;;;;;;;;;;;;;;;;4986388;28;19952;-82
2022/08/23 07:29:51;;;;;;;;;;;;;;;;;;4985547;28;19976;-82
2022/08/23 07:32:16;;;;;;;;;;;;;;;;;;4989072;28;19957;-85
2022/08/23 07:34:42;;;;;;;;;;;;;;;;;;4988777;28;19921;-83
2022/08/23 07:37:08;;;;;;;;;;;;;;;;;;4983402;28;19914;-83
2022/08/23 07:39:34;;;;;;;;;;;;;;;;;;4988864;28;19964;-80
2022/08/23 07:42:00;;;;;;;;;;;;;;;;;;4981514;28;19972;-80
2022/08/23 07:44:25;;;;;;;;;;;;;;;;;;4982726;28;19914;-80
2022/08/23 07:46:50;;;;;;;;;;;;;;;;;;4988756;28;19914;-81
2022/08/23 07:49:15;;;;;;;;;;;;;;;;;;4989800;28;19918;-82
2022/08/23 07:51:40;;;;;;;;;;;;;;;;;;4990808;28;19910;-81
2022/08/23 07:54:05;;;;;;;;;;;;;;;;;;4980491;28;19921;-81
2022/08/23 07:56:31;;;;;;;;;;;;;;;;;;4988187;28;20352;-86
2022/08/23 07:58:56;;;;;;;;;;;;;;;;;;4992124;28;19924;-84
2022/08/23 08:01:21;;;;;;;;;;;;;;;;;;4989116;28;19937;-83
2022/08/23 08:03:47;;;;;;;;;;;;;;;;;;4989434;28;19914;-85
2022/08/23 08:06:13;;;;;;;;;;;;;;;;;;4991985;28;19913;-85
2022/08/23 08:08:39;;;;;;;;;;;;;;;;;;4984808;28;20139;-84
2022/08/23 08:11:05;;;;;;;;;;;;;;;;;;4975939;28;20269;-83
2022/08/23 08:13:30;;;;;;;;;;;;;;;;;;4983698;28;19928;-83
2022/08/23 08:15:55;;;;;;;;;;;;;;;;;;4992000;28;19968;-82
2022/08/23 08:18:20;;;;;;;;;;;;;;;;;;4987598;28;19952;-83
2022/08/23 08:20:46;;;;;;;;;;;;;;;;;;4994825;28;19916;-83
2022/08/23 08:23:11;;;;;;;;;;;;;;;;;;4992566;28;20396;-83
2022/08/23 08:25:36;;;;;;;;;;;;;;;;;;4992539;28;20390;-82
2022/08/23 08:28:01;;;;;;;;;;;;;;;;;;4992951;28;19910;-82
2022/08/23 08:30:26;;;;;;;;;;;;;;;;;;4986668;28;19929;-84
2022/08/23 08:32:51;;;;;;;;;;;;;;;;;;4990525;28;19961;-83
2022/08/23 08:35:16;;;;;;;;;;;;;;;;;;4988780;28;19918;-82
2022/08/23 08:37:42;;;;;;;;;;;;;;;;;;4988911;28;19975;-84
2022/08/23 08:40:07;;;;;;;;;;;;;;;;;;4988556;28;20372;-83
2022/08/23 08:42:32;;;;;;;;;;;;;;;;;;4989089;28;20334;-84
2022/08/23 08:44:57;;;;;;;;;;;;;;;;;;4987565;28;19913;-83
2022/08/23 08:47:23;;;;;;;;;;;;;;;;;;4989930;28;19922;-83
2022/08/23 08:49:48;;;;;;;;;;;;;;;;;;4996896;28;19979;-82
2022/08/23 08:52:13;;;;;;;;;;;;;;;;;;4997282;28;19921;-83
2022/08/23 08:54:38;;;;;;;;;;;;;;;;;;4991881;28;20371;-82
2022/08/23 08:57:04;;;;;;;;;;;;;;;;;;4993798;28;19914;-83
2022/08/23 08:59:29;;;;;;;;;;;;;;;;;;4992109;28;19918;-83
2022/08/23 09:01:54;;;;;;;;;;;;;;;;;;4992302;28;19961;-83
2022/08/23 09:04:21;;;;;;;;;;;;;;;;;;4993109;28;20308;-82
2022/08/23 09:06:46;;;;;;;;;;;;;;;;;;4992579;28;20376;-82
2022/08/23 09:09:11;;;;;;;;;;;;;;;;;;4992594;28;19932;-86
2022/08/23 09:11:36;;;;;;;;;;;;;;;;;;4990450;28;19917;-83
2022/08/23 09:14:01;;;;;;;;;;;;;;;;;;4983561;28;20300;-83
2022/08/23 09:16:27;;;;;;;;;;;;;;;;;;4992261;28;20001;-84
2022/08/23 09:18:53;;;;;;;;;;;;;;;;;;4995871;28;20415;-85
2022/08/23 09:21:19;;;;;;;;;;;;;;;;;;4987842;28;19998;-83
2022/08/23 09:23:44;;;;;;;;;;;;;;;;;;4990579;28;20016;-85
2022/08/23 09:26:09;;;;;;;;;;;;;;;;;;4989934;28;19913;-85
2022/08/23 09:28:35;;;;;;;;;;;;;;;;;;4991377;28;19978;-84
2022/08/23 09:31:00;;;;;;;;;;;;;;;;;;4989224;28;19933;-85
2022/08/23 09:33:26;;;;;;;;;;;;;;;;;;4987768;28;19925;-85
2022/08/23 09:35:51;;;;;;;;;;;;;;;;;;4991531;28;19918;-85
2022/08/23 09:38:18;;;;;;;;;;;;;;;;;;4989055;28;19914;-85
2022/08/23 09:40:43;;;;;;;;;;;;;;;;;;4992089;28;19913;-85
2022/08/23 09:43:09;;;;;;;;;;;;;;;;;;4988076;28;19928;-85
2022/08/23 09:45:34;;;;;;;;;;;;;;;;;;4989429;28;19922;-90
2022/08/23 09:47:59;;;;;;;;;;;;;;;;;;5000469;28;19914;-87
2022/08/23 09:50:25;;;;;;;;;;;;;;;;;;4984842;28;19921;-86
2022/08/23 09:52:50;;;;;;;;;;;;;;;;;;4978688;28;20021;-86
2022/08/23 09:55:15;;;;;;;;;;;;;;;;;;4993635;28;19914;-90
2022/08/23 09:57:40;;;;;;;;;;;;;;;;;;4983784;28;20384;-84
2022/08/23 10:00:05;;;;;;;;;;;;;;;;;;4977964;28;19913;-84
2022/08/23 10:02:31;;;;;;;;;;;;;;;;;;4990710;28;19913;-84
2022/08/23 10:04:56;;;;;;;;;;;;;;;;;;4990748;28;20385;-84
2022/08/23 10:07:21;;;;;;;;;;;;;;;;;;4985246;28;20015;-84
2022/08/23 10:09:46;;;;;;;;;;;;;;;;;;4992659;28;19918;-84
2022/08/23 10:12:12;;;;;;;;;;;;;;;;;;4990171;28;20292;-84
2022/08/23 10:14:37;;;;;;;;;;;;;;;;;;4991512;28;20052;-86
2022/08/23 10:17:03;;;;;;;;;;;;;;;;;;4979056;28;19922;-85
2022/08/23 10:19:29;;;;;;;;;;;;;;;;;;4992855;28;19922;-86
2022/08/23 10:21:56;;;;;;;;;;;;;;;;;;4976808;28;19910;-85
2022/08/23 10:24:21;;;;;;;;;;;;;;;;;;4975158;28;19921;-85
2022/08/23 10:26:46;;;;;;;;;;;;;;;;;;4974286;28;19917;-85
2022/08/23 10:31:55;;;;;;;;;;;;;;;;;;4992208;28;19968;-86
2022/08/23 10:34:21;;;;;;;;;;;;;;;;;;4990475;28;19914;-84
2022/08/23 10:36:46;;;;;;;;;;;;;;;;;;4975440;28;19924;-85
2022/08/23 10:39:11;;;;;;;;;;;;;;;;;;4971904;28;19914;-84
2022/08/23 10:41:36;;;;;;;;;;;;;;;;;;4974482;28;20320;-85
2022/08/23 10:44:01;;;;;;;;;;;;;;;;;;4967477;28;19918;-84
2022/08/23 10:46:26;;;;;;;;;;;;;;;;;;4972943;28;19917;-85
2022/08/23 10:48:52;;;;;;;;;;;;;;;;;;4969055;28;20383;-85
2022/08/23 10:51:17;;;;;;;;;;;;;;;;;;4973052;28;19920;-84
2022/08/23 10:53:45;;;;;;;;;;;;;;;;;;4975845;28;20315;-85
2022/08/23 10:56:15;;;;;;;;;;;;;;;;;;4974187;28;19914;-85
2022/08/23 10:58:40;;;;;;;;;;;;;;;;;;4974331;28;20372;-84
2022/08/23 11:01:05;;;;;;;;;;;;;;;;;;4974848;28;19913;-85
2022/08/23 11:03:30;;;;;;;;;;;;;;;;;;4971844;28;19921;-85
2022/08/23 11:05:55;;;;;;;;;;;;;;;;;;4974223;28;20072;-82
2022/08/23 11:08:20;;;;;;;;;;;;;;;;;;4975454;28;19921;-82
2022/08/23 11:10:46;;;;;;;;;;;;;;;;;;4971042;28;20004;-82
2022/08/23 11:13:12;;;;;;;;;;;;;;;;;;4973041;28;19918;-83
2022/08/23 11:15:37;;;;;;;;;;;;;;;;;;4972885;28;19926;-84
2022/08/23 11:18:02;;;;;;;;;;;;;;;;;;4974130;28;19909;-81
2022/08/23 11:20:27;;;;;;;;;;;;;;;;;;4969490;28;19928;-81
2022/08/23 11:22:52;;;;;;;;;;;;;;;;;;4973411;28;20005;-81
2022/08/23 11:25:18;;;;;;;;;;;;;;;;;;4968667;28;19914;-81
2022/08/23 11:27:43;;;;;;;;;;;;;;;;;;4975009;28;19964;-81
2022/08/23 11:30:08;;;;;;;;;;;;;;;;;;4974706;28;19924;-83
2022/08/23 11:32:33;;;;;;;;;;;;;;;;;;4970075;28;20431;-81
2022/08/23 11:34:59;;;;;;;;;;;;;;;;;;4974469;28;19914;-82
2022/08/23 11:37:25;;;;;;;;;;;;;;;;;;4991661;28;19968;-80
2022/08/23 11:39:50;;;;;;;;;;;;;;;;;;4976038;28;19976;-81
2022/08/23 11:42:15;;;;;;;;;;;;;;;;;;4974566;28;19913;-81
2022/08/23 11:44:41;;;;;;;;;;;;;;;;;;4975026;28;19918;-81
2022/08/23 11:47:06;;;;;;;;;;;;;;;;;;4975310;28;20312;-82
2022/08/23 11:49:32;;;;;;;;;;;;;;;;;;4978225;28;20004;-81
2022/08/23 11:51:57;;;;;;;;;;;;;;;;;;4970121;28;20001;-81
2022/08/23 11:54:22;;;;;;;;;;;;;;;;;;4984258;28;20395;-81
2022/08/23 11:56:48;;;;;;;;;;;;;;;;;;4972575;28;19920;-81
2022/08/23 11:59:14;;;;;;;;;;;;;;;;;;4976079;28;19913;-80
2022/08/23 12:01:39;;;;;;;;;;;;;;;;;;4976690;28;19957;-81
2022/08/23 12:04:10;;;;;;;;;;;;;;;;;;4977105;28;19920;-81
2022/08/23 12:06:35;;;;;;;;;;;;;;;;;;4977016;28;19914;-80
2022/08/23 12:09:00;;;;;;;;;;;;;;;;;;4995482;28;20435;-81
2022/08/23 12:11:26;;;;;;;;;;;;;;;;;;4991718;28;19914;-81
2022/08/23 12:13:51;;;;;;;;;;;;;;;;;;4972778;28;19940;-82
2022/08/23 12:16:17;;;;;;;;;;;;;;;;;;4977062;28;19921;-81
2022/08/23 12:18:42;;;;;;;;;;;;;;;;;;4976974;28;20407;-82
2022/08/23 12:21:07;;;;;;;;;;;;;;;;;;4993374;28;19929;-81
2022/08/23 12:23:33;;;;;;;;;;;;;;;;;;4974659;28;19921;-80
2022/08/23 12:25:58;;;;;;;;;;;;;;;;;;4976292;28;19949;-83
2022/08/23 12:28:26;;;;;;;;;;;;;;;;;;4976407;28;19921;-79
2022/08/23 12:30:51;;;;;;;;;;;;;;;;;;4991205;28;19933;-82
2022/08/23 12:33:16;;;;;;;;;;;;;;;;;;4985107;28;20377;-83
2022/08/23 12:35:41;;;;;;;;;;;;;;;;;;4977753;28;19913;-82
2022/08/23 12:38:06;;;;;;;;;;;;;;;;;;4996499;28;19957;-82
2022/08/23 12:40:32;;;;;;;;;;;;;;;;;;4974119;28;19997;-83
2022/08/23 12:42:57;;;;;;;;;;;;;;;;;;4975745;28;20273;-81
2022/08/23 12:45:22;;;;;;;;;;;;;;;;;;4970950;28;19914;-87
2022/08/23 12:47:47;;;;;;;;;;;;;;;;;;4979106;28;19921;-88
2022/08/23 12:50:12;;;;;;;;;;;;;;;;;;4992540;28;19918;-87
2022/08/23 12:52:38;;;;;;;;;;;;;;;;;;4978964;28;19921;-86
2022/08/23 12:55:03;;;;;;;;;;;;;;;;;;4996910;28;20283;-86
2022/08/23 12:57:28;;;;;;;;;;;;;;;;;;4979148;28;19957;-88
2022/08/23 12:59:53;;;;;;;;;;;;;;;;;;4979419;28;20094;-85
2022/08/23 13:02:18;;;;;;;;;;;;;;;;;;4971838;28;19914;-85
2022/08/23 13:04:44;;;;;;;;;;;;;;;;;;4959522;28;20356;-84
2022/08/23 13:07:09;;;;;;;;;;;;;;;;;;4971543;28;19915;-85
2022/08/23 13:09:35;;;;;;;;;;;;;;;;;;4958078;28;19918;-85
2022/08/23 13:12:01;;;;;;;;;;;;;;;;;;4960043;28;20427;-84
2022/08/23 13:14:26;;;;;;;;;;;;;;;;;;4971415;28;19914;-82
2022/08/23 13:16:51;;;;;;;;;;;;;;;;;;4956562;28;19941;-83
2022/08/23 13:19:16;;;;;;;;;;;;;;;;;;4965064;28;19945;-82
2022/08/23 13:21:41;;;;;;;;;;;;;;;;;;4956748;28;19914;-83
2022/08/23 13:24:07;;;;;;;;;;;;;;;;;;4956461;28;19914;-83
2022/08/23 13:26:32;;;;;;;;;;;;;;;;;;4955390;28;19915;-82
2022/08/23 13:28:57;;;;;;;;;;;;;;;;;;4957529;28;19914;-82
2022/08/23 13:31:22;;;;;;;;;;;;;;;;;;4957392;28;20017;-82
2022/08/23 13:33:47;;;;;;;;;;;;;;;;;;4974406;28;19917;-82
2022/08/23 13:36:12;;;;;;;;;;;;;;;;;;4955940;28;19914;-81
2022/08/23 13:38:38;;;;;;;;;;;;;;;;;;4952574;28;19965;-81
2022/08/23 13:41:03;;;;;;;;;;;;;;;;;;4954291;28;20335;-81
2022/08/23 13:43:28;;;;;;;;;;;;;;;;;;4954538;28;19969;-82
2022/08/23 13:45:53;;;;;;;;;;;;;;;;;;4956165;28;19973;-85
2022/08/23 13:48:18;;;;;;;;;;;;;;;;;;4955532;28;19921;-83
2022/08/23 13:50:44;;;;;;;;;;;;;;;;;;4955289;28;19922;-82
2022/08/23 13:53:09;;;;;;;;;;;;;;;;;;4957428;28;20365;-84
2022/08/23 13:55:34;;;;;;;;;;;;;;;;;;4956546;28;20012;-83
2022/08/23 13:58:00;;;;;;;;;;;;;;;;;;4974635;28;19918;-83
2022/08/23 14:00:25;;;;;;;;;;;;;;;;;;4974412;28;20009;-83
2022/08/23 14:02:50;;;;;;;;;;;;;;;;;;4955862;28;19921;-82
2022/08/23 14:05:15;;;;;;;;;;;;;;;;;;4975449;28;19917;-83
2022/08/23 14:07:40;;;;;;;;;;;;;;;;;;4957411;28;19910;-82
2022/08/23 14:10:05;;;;;;;;;;;;;;;;;;4952926;28;20480;-84
2022/08/23 14:12:31;;;;;;;;;;;;;;;;;;4955068;28;19914;-82
2022/08/23 14:14:56;;;;;;;;;;;;;;;;;;4960215;28;19914;-84
2022/08/23 14:17:22;;;;;;;;;;;;;;;;;;4993428;28;20431;-84
2022/08/23 14:19:47;;;;;;;;;;;;;;;;;;4975219;28;19937;-83
2022/08/23 14:22:13;;;;;;;;;;;;;;;;;;4976426;28;19953;-83
2022/08/23 14:24:38;;;;;;;;;;;;;;;;;;4972359;28;20345;-83
2022/08/23 14:27:03;;;;;;;;;;;;;;;;;;4956612;28;19914;-82
2022/08/23 14:29:28;;;;;;;;;;;;;;;;;;4956902;28;19918;-83
2022/08/23 14:31:54;;;;;;;;;;;;;;;;;;4974159;28;19972;-84
2022/08/23 14:34:19;;;;;;;;;;;;;;;;;;4974727;28;19914;-83
2022/08/23 14:36:44;;;;;;;;;;;;;;;;;;4975724;28;19909;-83
2022/08/23 14:39:09;;;;;;;;;;;;;;;;;;4974325;28;19917;-83
2022/08/23 14:41:34;;;;;;;;;;;;;;;;;;4974630;28;19961;-83
2022/08/23 14:43:59;;;;;;;;;;;;;;;;;;4990383;28;20014;-83
2022/08/23 14:46:24;;;;;;;;;;;;;;;;;;4975804;28;19996;-84
2022/08/23 14:48:50;;;;;;;;;;;;;;;;;;4975171;28;20387;-82
2022/08/23 14:51:15;;;;;;;;;;;;;;;;;;4992509;28;19914;-85
2022/08/23 14:53:40;;;;;;;;;;;;;;;;;;4974203;28;19921;-83
2022/08/23 14:56:05;;;;;;;;;;;;;;;;;;4974491;28;20273;-83
2022/08/23 14:58:30;;;;;;;;;;;;;;;;;;4975870;28;19961;-83
2022/08/23 15:00:55;;;;;;;;;;;;;;;;;;4974814;28;20361;-83
2022/08/23 15:03:20;;;;;;;;;;;;;;;;;;4975007;28;19914;-82
2022/08/23 15:05:46;;;;;;;;;;;;;;;;;;4975138;28;20315;-82
2022/08/23 15:08:11;;;;;;;;;;;;;;;;;;4975486;28;19910;-82
2022/08/23 15:10:36;;;;;;;;;;;;;;;;;;4974078;28;20056;-82
2022/08/23 15:13:02;;;;;;;;;;;;;;;;;;4975099;28;20261;-81
2022/08/23 15:15:29;;;;;;;;;;;;;;;;;;4972463;28;20647;-82
2022/08/23 15:17:54;;;;;;;;;;;;;;;;;;4976880;28;19965;-82
2022/08/23 15:20:19;;;;;;;;;;;;;;;;;;4977235;28;19948;-82
2022/08/23 15:22:44;;;;;;;;;;;;;;;;;;4958967;28;19914;-83
2022/08/23 15:25:09;;;;;;;;;;;;;;;;;;4959915;28;19937;-82
2022/08/23 15:27:35;;;;;;;;;;;;;;;;;;4959624;28;19937;-83
2022/08/23 15:30:00;;;;;;;;;;;;;;;;;;4977131;28;20065;-83
2022/08/23 15:32:25;;;;;;;;;;;;;;;;;;4948646;29;19922;-83
2022/08/23 15:34:50;;;;;;;;;;;;;;;;;;4957624;29;20373;-83
2022/08/23 15:37:15;;;;;;;;;;;;;;;;;;4966851;28;20385;-83
2022/08/23 15:39:40;;;;;;;;;;;;;;;;;;4959417;28;19910;-81
2022/08/23 15:42:05;;;;;;;;;;;;;;;;;;4957048;28;19921;-84
2022/08/23 15:44:31;;;;;;;;;;;;;;;;;;4954711;28;19914;-83
2022/08/23 15:46:56;;;;;;;;;;;;;;;;;;4943199;28;19996;-82
2022/08/23 15:49:21;;;;;;;;;;;;;;;;;;4958752;28;19970;-83
2022/08/23 15:51:46;;;;;;;;;;;;;;;;;;4959742;28;19910;-82
2022/08/23 15:54:12;;;;;;;;;;;;;;;;;;4958591;28;20008;-82
2022/08/23 15:56:37;;;;;;;;;;;;;;;;;;4959632;28;20029;-83
2022/08/23 15:59:02;;;;;;;;;;;;;;;;;;4955052;28;20381;-83
2022/08/23 16:01:32;;;;;;;;;;;;;;;;;;4957486;28;19918;-83
2022/08/23 16:03:57;;;;;;;;;;;;;;;;;;4975501;28;20403;-83
2022/08/23 16:06:22;;;;;;;;;;;;;;;;;;4959766;28;20005;-83
2022/08/23 16:08:47;;;;;;;;;;;;;;;;;;4958335;28;20288;-82
2022/08/23 16:11:12;;;;;;;;;;;;;;;;;;4959194;28;19964;-82
2022/08/23 16:13:39;;;;;;;;;;;;;;;;;;4954771;28;19957;-82
2022/08/23 16:16:04;;;;;;;;;;;;;;;;;;4958071;28;20401;-83
2022/08/23 16:18:29;;;;;;;;;;;;;;;;;;4976319;28;19917;-83
2022/08/23 16:20:55;;;;;;;;;;;;;;;;;;4990571;28;19910;-83
2022/08/23 16:23:20;;;;;;;;;;;;;;;;;;4976063;28;19914;-83
2022/08/23 16:25:45;;;;;;;;;;;;;;;;;;4976148;28;19920;-82
2022/08/23 16:28:10;;;;;;;;;;;;;;;;;;4978304;28;19909;-83
2022/08/23 16:30:35;;;;;;;;;;;;;;;;;;4964214;28;19965;-82
2022/08/23 16:33:00;;;;;;;;;;;;;;;;;;4970478;28;19921;-83
2022/08/23 16:35:26;;;;;;;;;;;;;;;;;;4978502;28;19996;-82
2022/08/23 16:37:53;;;;;;;;;;;;;;;;;;4978216;28;19916;-83
2022/08/23 16:40:19;;;;;;;;;;;;;;;;;;4971186;28;19930;-84
2022/08/23 16:42:45;;;;;;;;;;;;;;;;;;4987107;28;19920;-78